sensor_id;sensor_type;location;lat;lon;timestamp;temperature;humidity
4811;DHT22;2419;51.276;6.472;2022-10-16T00:01:07;13.60;99.90
4811;DHT22;2419;51.276;6.472;2022-10-16T00:03:38;13.70;99.90
4811;DHT22;2419;51.276;6.472;2022-10-16T00:06:07;13.60;99.90
4811;DHT22;2419;51.276;6.472;2022-10-16T00:08:35;13.60;99.90
4811;DHT22;2419;51.276;6.472;2022-10-16T00:11:06;13.60;99.90
4811;DHT22;2419;51.276;6.472;2022-10-16T00:13:36;13.70;99.90
4811;DHT22;2419;51.276;6.472;2022-10-16T00:16:06;13.70;99.90
4811;DHT22;2419;51.276;6.472;2022-10-16T00:18:35;13.80;99.90
4811;DHT22;2419;51.276;6.472;2022-10-16T00:21:05;13.80;99.90
4811;DHT22;2419;51.276;6.472;2022-10-16T00:23:34;13.80;99.90
4811;DHT22;2419;51.276;6.472;2022-10-16T00:26:04;13.80;99.90
4811;DHT22;2419;51.276;6.472;2022-10-16T00:28:33;13.80;99.90
4811;DHT22;2419;51.276;6.472;2022-10-16T00:31:03;13.80;99.90
4811;DHT22;2419;51.276;6.472;2022-10-16T00:33:33;13.80;99.90
4811;DHT22;2419;51.276;6.472;2022-10-16T00:36:03;13.80;99.90
4811;DHT22;2419;51.276;6.472;2022-10-16T00:38:31;13.80;99.90
4811;DHT22;2419;51.276;6.472;2022-10-16T00:40:59;13.80;99.90
4811;DHT22;2419;51.276;6.472;2022-10-16T00:43:36;13.80;99.90
4811;DHT22;2419;51.276;6.472;2022-10-16T00:46:13;13.80;99.90
4811;DHT22;2419;51.276;6.472;2022-10-16T00:48:47;13.80;99.90
4811;DHT22;2419;51.276;6.472;2022-10-16T00:51:18;13.80;99.90
4811;DHT22;2419;51.276;6.472;2022-10-16T00:53:47;13.80;99.90
4811;DHT22;2419;51.276;6.472;2022-10-16T00:56:16;13.70;99.90
4811;DHT22;2419;51.276;6.472;2022-10-16T00:58:44;13.70;99.90
4811;DHT22;2419;51.276;6.472;2022-10-16T01:01:12;13.70;99.90
4811;DHT22;2419;51.276;6.472;2022-10-16T01:03:42;13.70;99.90
4811;DHT22;2419;51.276;6.472;2022-10-16T01:06:22;13.60;99.90
4811;DHT22;2419;51.276;6.472;2022-10-16T01:09:11;13.60;99.90
4811;DHT22;2419;51.276;6.472;2022-10-16T01:11:45;13.50;99.90
4811;DHT22;2419;51.276;6.472;2022-10-16T01:14:22;13.50;99.90
4811;DHT22;2419;51.276;6.472;2022-10-16T01:17:00;13.60;99.90
4811;DHT22;2419;51.276;6.472;2022-10-16T01:19:54;13.60;99.90
4811;DHT22;2419;51.276;6.472;2022-10-16T01:22:37;13.50;99.90
4811;DHT22;2419;51.276;6.472;2022-10-16T01:25:11;13.40;99.90
4811;DHT22;2419;51.276;6.472;2022-10-16T01:27:46;13.50;99.90
4811;DHT22;2419;51.276;6.472;2022-10-16T01:30:17;13.40;99.90
4811;DHT22;2419;51.276;6.472;2022-10-16T01:32:51;13.40;99.90
4811;DHT22;2419;51.276;6.472;2022-10-16T01:35:23;13.40;99.90
4811;DHT22;2419;51.276;6.472;2022-10-16T01:37:56;13.30;99.90
4811;DHT22;2419;51.276;6.472;2022-10-16T01:40:26;13.30;99.90
4811;DHT22;2419;51.276;6.472;2022-10-16T01:42:59;13.20;99.90
4811;DHT22;2419;51.276;6.472;2022-10-16T01:45:30;13.20;99.90
4811;DHT22;2419;51.276;6.472;2022-10-16T01:48:00;13.20;99.90
4811;DHT22;2419;51.276;6.472;2022-10-16T01:50:31;13.10;99.90
4811;DHT22;2419;51.276;6.472;2022-10-16T01:53:02;13.10;99.90
4811;DHT22;2419;51.276;6.472;2022-10-16T01:55:33;13.10;99.90
4811;DHT22;2419;51.276;6.472;2022-10-16T01:58:07;13.10;99.90
4811;DHT22;2419;51.276;6.472;2022-10-16T02:00:38;13.00;99.90
4811;DHT22;2419;51.276;6.472;2022-10-16T02:03:07;13.10;99.90
4811;DHT22;2419;51.276;6.472;2022-10-16T02:05:40;13.10;99.90
4811;DHT22;2419;51.276;6.472;2022-10-16T02:11:54;13.10;99.90
4811;DHT22;2419;51.276;6.472;2022-10-16T02:14:24;13.20;99.90
4811;DHT22;2419;51.276;6.472;2022-10-16T02:16:52;13.10;99.90
4811;DHT22;2419;51.276;6.472;2022-10-16T02:19:20;13.20;99.90
4811;DHT22;2419;51.276;6.472;2022-10-16T02:21:51;13.20;99.90
4811;DHT22;2419;51.276;6.472;2022-10-16T02:24:26;13.30;99.90
4811;DHT22;2419;51.276;6.472;2022-10-16T02:27:01;13.30;99.90
4811;DHT22;2419;51.276;6.472;2022-10-16T02:29:33;13.30;99.90
4811;DHT22;2419;51.276;6.472;2022-10-16T02:32:05;13.30;99.90
4811;DHT22;2419;51.276;6.472;2022-10-16T02:34:34;13.30;99.90
4811;DHT22;2419;51.276;6.472;2022-10-16T02:37:05;13.30;99.90
4811;DHT22;2419;51.276;6.472;2022-10-16T02:39:34;13.40;99.90
4811;DHT22;2419;51.276;6.472;2022-10-16T02:42:02;13.40;99.90
4811;DHT22;2419;51.276;6.472;2022-10-16T02:44:31;13.40;99.90
4811;DHT22;2419;51.276;6.472;2022-10-16T02:47:00;13.50;99.90
4811;DHT22;2419;51.276;6.472;2022-10-16T02:49:28;13.60;99.90
4811;DHT22;2419;51.276;6.472;2022-10-16T02:51:56;13.50;99.90
4811;DHT22;2419;51.276;6.472;2022-10-16T02:54:24;13.60;99.90
4811;DHT22;2419;51.276;6.472;2022-10-16T02:56:52;13.50;99.90
4811;DHT22;2419;51.276;6.472;2022-10-16T02:59:20;13.50;99.90
4811;DHT22;2419;51.276;6.472;2022-10-16T03:01:49;13.50;99.90
4811;DHT22;2419;51.276;6.472;2022-10-16T03:04:17;13.50;99.90
4811;DHT22;2419;51.276;6.472;2022-10-16T03:06:45;13.40;99.90
4811;DHT22;2419;51.276;6.472;2022-10-16T03:09:13;13.40;99.90
4811;DHT22;2419;51.276;6.472;2022-10-16T03:11:41;13.50;99.90
4811;DHT22;2419;51.276;6.472;2022-10-16T03:14:09;13.40;99.90
4811;DHT22;2419;51.276;6.472;2022-10-16T03:16:37;13.50;99.90
4811;DHT22;2419;51.276;6.472;2022-10-16T03:19:07;13.40;99.90
4811;DHT22;2419;51.276;6.472;2022-10-16T03:21:35;13.40;99.90
4811;DHT22;2419;51.276;6.472;2022-10-16T03:24:03;13.50;99.90
4811;DHT22;2419;51.276;6.472;2022-10-16T03:26:32;13.50;99.90
4811;DHT22;2419;51.276;6.472;2022-10-16T03:29:00;13.50;99.90
4811;DHT22;2419;51.276;6.472;2022-10-16T03:31:29;13.50;99.90
4811;DHT22;2419;51.276;6.472;2022-10-16T03:33:58;13.50;99.90
4811;DHT22;2419;51.276;6.472;2022-10-16T03:36:27;13.50;99.90
4811;DHT22;2419;51.276;6.472;2022-10-16T03:38:55;13.40;99.90
4811;DHT22;2419;51.276;6.472;2022-10-16T03:41:23;13.40;99.90
4811;DHT22;2419;51.276;6.472;2022-10-16T03:43:51;13.40;99.90
4811;DHT22;2419;51.276;6.472;2022-10-16T03:46:19;13.40;99.90
4811;DHT22;2419;51.276;6.472;2022-10-16T03:48:47;13.30;99.90
4811;DHT22;2419;51.276;6.472;2022-10-16T03:51:15;13.30;99.90
4811;DHT22;2419;51.276;6.472;2022-10-16T03:53:44;13.30;99.90
4811;DHT22;2419;51.276;6.472;2022-10-16T03:56:12;13.30;99.90
4811;DHT22;2419;51.276;6.472;2022-10-16T03:58:40;13.20;99.90
4811;DHT22;2419;51.276;6.472;2022-10-16T04:01:08;13.20;99.90
4811;DHT22;2419;51.276;6.472;2022-10-16T04:03:37;13.10;99.90
4811;DHT22;2419;51.276;6.472;2022-10-16T04:06:05;13.10;99.90
4811;DHT22;2419;51.276;6.472;2022-10-16T04:08:33;13.10;99.90
4811;DHT22;2419;51.276;6.472;2022-10-16T04:11:05;13.10;99.90
4811;DHT22;2419;51.276;6.472;2022-10-16T04:13:33;13.00;99.90
4811;DHT22;2419;51.276;6.472;2022-10-16T04:16:01;13.00;99.90
4811;DHT22;2419;51.276;6.472;2022-10-16T04:18:29;13.00;99.90
4811;DHT22;2419;51.276;6.472;2022-10-16T04:20:57;13.00;99.90
4811;DHT22;2419;51.276;6.472;2022-10-16T04:23:29;13.00;99.90
4811;DHT22;2419;51.276;6.472;2022-10-16T04:25:57;12.90;99.90
4811;DHT22;2419;51.276;6.472;2022-10-16T04:28:27;12.90;99.90
4811;DHT22;2419;51.276;6.472;2022-10-16T04:30:56;12.80;99.90
4811;DHT22;2419;51.276;6.472;2022-10-16T04:33:24;12.70;99.90
4811;DHT22;2419;51.276;6.472;2022-10-16T04:35:56;12.70;99.90
4811;DHT22;2419;51.276;6.472;2022-10-16T04:38:25;12.70;99.90
4811;DHT22;2419;51.276;6.472;2022-10-16T04:40:53;12.70;99.90
4811;DHT22;2419;51.276;6.472;2022-10-16T04:43:21;12.70;99.90
4811;DHT22;2419;51.276;6.472;2022-10-16T04:45:51;12.70;99.90
4811;DHT22;2419;51.276;6.472;2022-10-16T04:48:19;12.70;99.90
4811;DHT22;2419;51.276;6.472;2022-10-16T04:50:48;12.70;99.90
4811;DHT22;2419;51.276;6.472;2022-10-16T04:53:21;12.70;99.90
4811;DHT22;2419;51.276;6.472;2022-10-16T04:55:49;12.70;99.90
4811;DHT22;2419;51.276;6.472;2022-10-16T04:58:17;12.60;99.90
4811;DHT22;2419;51.276;6.472;2022-10-16T05:00:45;12.60;99.90
4811;DHT22;2419;51.276;6.472;2022-10-16T05:03:15;12.50;99.90
4811;DHT22;2419;51.276;6.472;2022-10-16T05:05:44;12.50;99.90
4811;DHT22;2419;51.276;6.472;2022-10-16T05:08:13;12.40;99.90
4811;DHT22;2419;51.276;6.472;2022-10-16T05:10:43;12.40;99.90
4811;DHT22;2419;51.276;6.472;2022-10-16T05:13:11;12.50;99.90
4811;DHT22;2419;51.276;6.472;2022-10-16T05:15:39;12.40;99.90
4811;DHT22;2419;51.276;6.472;2022-10-16T05:18:08;12.40;99.90
4811;DHT22;2419;51.276;6.472;2022-10-16T05:20:38;12.40;99.90
4811;DHT22;2419;51.276;6.472;2022-10-16T05:23:06;12.40;99.90
4811;DHT22;2419;51.276;6.472;2022-10-16T05:25:34;12.40;99.90
4811;DHT22;2419;51.276;6.472;2022-10-16T05:28:02;12.40;99.90
4811;DHT22;2419;51.276;6.472;2022-10-16T05:30:30;12.40;99.90
4811;DHT22;2419;51.276;6.472;2022-10-16T05:32:58;12.40;99.90
4811;DHT22;2419;51.276;6.472;2022-10-16T05:35:26;12.40;99.90
4811;DHT22;2419;51.276;6.472;2022-10-16T05:37:56;12.40;99.90
4811;DHT22;2419;51.276;6.472;2022-10-16T05:40:24;12.40;99.90
4811;DHT22;2419;51.276;6.472;2022-10-16T05:42:54;12.40;99.90
4811;DHT22;2419;51.276;6.472;2022-10-16T05:45:23;12.30;99.90
4811;DHT22;2419;51.276;6.472;2022-10-16T05:47:51;12.30;99.90
4811;DHT22;2419;51.276;6.472;2022-10-16T05:50:19;12.40;99.90
4811;DHT22;2419;51.276;6.472;2022-10-16T05:52:47;12.50;99.90
4811;DHT22;2419;51.276;6.472;2022-10-16T05:55:16;12.50;99.90
4811;DHT22;2419;51.276;6.472;2022-10-16T05:57:44;12.50;99.90
4811;DHT22;2419;51.276;6.472;2022-10-16T06:00:12;12.50;99.90
4811;DHT22;2419;51.276;6.472;2022-10-16T06:02:40;12.50;99.90
4811;DHT22;2419;51.276;6.472;2022-10-16T06:05:08;12.40;99.90
4811;DHT22;2419;51.276;6.472;2022-10-16T06:07:37;12.40;99.90
4811;DHT22;2419;51.276;6.472;2022-10-16T06:10:06;12.30;99.90
4811;DHT22;2419;51.276;6.472;2022-10-16T06:12:35;12.30;99.90
4811;DHT22;2419;51.276;6.472;2022-10-16T06:15:04;12.40;99.90
4811;DHT22;2419;51.276;6.472;2022-10-16T06:17:32;12.30;99.90
4811;DHT22;2419;51.276;6.472;2022-10-16T06:20:02;12.30;99.90
4811;DHT22;2419;51.276;6.472;2022-10-16T06:22:37;12.30;99.90
4811;DHT22;2419;51.276;6.472;2022-10-16T06:25:05;12.30;99.90
4811;DHT22;2419;51.276;6.472;2022-10-16T06:27:35;12.30;99.90
4811;DHT22;2419;51.276;6.472;2022-10-16T06:30:04;12.30;99.90
4811;DHT22;2419;51.276;6.472;2022-10-16T06:32:32;12.30;99.90
4811;DHT22;2419;51.276;6.472;2022-10-16T06:35:00;12.40;99.90
4811;DHT22;2419;51.276;6.472;2022-10-16T06:37:28;12.50;99.90
4811;DHT22;2419;51.276;6.472;2022-10-16T06:39:56;12.50;99.90
4811;DHT22;2419;51.276;6.472;2022-10-16T06:42:24;12.60;99.90
4811;DHT22;2419;51.276;6.472;2022-10-16T06:44:54;12.60;99.90
4811;DHT22;2419;51.276;6.472;2022-10-16T06:47:22;12.60;99.90
4811;DHT22;2419;51.276;6.472;2022-10-16T06:49:50;12.70;99.90
4811;DHT22;2419;51.276;6.472;2022-10-16T06:52:20;12.70;99.90
4811;DHT22;2419;51.276;6.472;2022-10-16T06:54:49;12.70;99.90
4811;DHT22;2419;51.276;6.472;2022-10-16T06:57:17;12.70;99.90
4811;DHT22;2419;51.276;6.472;2022-10-16T06:59:45;12.70;99.90
4811;DHT22;2419;51.276;6.472;2022-10-16T07:02:19;12.80;99.90
4811;DHT22;2419;51.276;6.472;2022-10-16T07:04:47;12.70;99.90
4811;DHT22;2419;51.276;6.472;2022-10-16T07:07:15;12.70;99.90
4811;DHT22;2419;51.276;6.472;2022-10-16T07:09:43;12.60;99.90
4811;DHT22;2419;51.276;6.472;2022-10-16T07:12:11;12.50;99.90
4811;DHT22;2419;51.276;6.472;2022-10-16T07:14:39;12.50;99.90
4811;DHT22;2419;51.276;6.472;2022-10-16T07:17:07;12.60;99.90
4811;DHT22;2419;51.276;6.472;2022-10-16T07:19:36;12.70;99.90
4811;DHT22;2419;51.276;6.472;2022-10-16T07:22:04;12.80;99.90
4811;DHT22;2419;51.276;6.472;2022-10-16T07:24:33;13.10;99.90
4811;DHT22;2419;51.276;6.472;2022-10-16T07:27:01;13.60;99.90
4811;DHT22;2419;51.276;6.472;2022-10-16T07:29:29;13.70;99.90
4811;DHT22;2419;51.276;6.472;2022-10-16T07:31:57;13.70;99.90
4811;DHT22;2419;51.276;6.472;2022-10-16T07:34:25;13.70;99.90
4811;DHT22;2419;51.276;6.472;2022-10-16T07:36:55;13.70;99.90
4811;DHT22;2419;51.276;6.472;2022-10-16T07:39:23;13.80;99.90
4811;DHT22;2419;51.276;6.472;2022-10-16T07:41:51;14.00;99.90
4811;DHT22;2419;51.276;6.472;2022-10-16T07:44:19;14.10;99.90
4811;DHT22;2419;51.276;6.472;2022-10-16T07:46:47;14.20;99.90
4811;DHT22;2419;51.276;6.472;2022-10-16T07:49:15;14.40;99.90
4811;DHT22;2419;51.276;6.472;2022-10-16T07:51:43;14.50;99.90
4811;DHT22;2419;51.276;6.472;2022-10-16T07:54:13;14.60;99.90
4811;DHT22;2419;51.276;6.472;2022-10-16T07:56:41;14.60;99.90
4811;DHT22;2419;51.276;6.472;2022-10-16T07:59:10;14.70;99.90
4811;DHT22;2419;51.276;6.472;2022-10-16T08:01:38;14.80;99.90
4811;DHT22;2419;51.276;6.472;2022-10-16T08:04:06;14.90;99.90
4811;DHT22;2419;51.276;6.472;2022-10-16T08:06:36;14.90;99.90
4811;DHT22;2419;51.276;6.472;2022-10-16T08:09:05;15.00;99.90
4811;DHT22;2419;51.276;6.472;2022-10-16T08:11:35;15.00;99.90
4811;DHT22;2419;51.276;6.472;2022-10-16T08:14:03;15.20;99.90
4811;DHT22;2419;51.276;6.472;2022-10-16T08:16:31;15.40;99.90
4811;DHT22;2419;51.276;6.472;2022-10-16T08:18:59;15.60;99.90
4811;DHT22;2419;51.276;6.472;2022-10-16T08:21:27;15.80;99.90
4811;DHT22;2419;51.276;6.472;2022-10-16T08:23:55;15.80;99.90
4811;DHT22;2419;51.276;6.472;2022-10-16T08:26:25;15.80;99.90
4811;DHT22;2419;51.276;6.472;2022-10-16T08:28:55;15.80;99.90
4811;DHT22;2419;51.276;6.472;2022-10-16T08:31:23;16.00;99.90
4811;DHT22;2419;51.276;6.472;2022-10-16T08:33:52;16.00;99.90
4811;DHT22;2419;51.276;6.472;2022-10-16T08:36:21;16.00;99.90
4811;DHT22;2419;51.276;6.472;2022-10-16T08:38:49;16.10;99.90
4811;DHT22;2419;51.276;6.472;2022-10-16T08:44:57;16.40;99.90
4811;DHT22;2419;51.276;6.472;2022-10-16T08:47:39;16.40;99.90
4811;DHT22;2419;51.276;6.472;2022-10-16T08:50:12;16.60;99.90
4811;DHT22;2419;51.276;6.472;2022-10-16T08:52:43;16.60;99.90
4811;DHT22;2419;51.276;6.472;2022-10-16T08:55:25;16.70;99.90
4811;DHT22;2419;51.276;6.472;2022-10-16T08:57:56;17.00;99.90
4811;DHT22;2419;51.276;6.472;2022-10-16T09:00:26;17.50;99.90
4811;DHT22;2419;51.276;6.472;2022-10-16T09:03:03;17.30;99.90
4811;DHT22;2419;51.276;6.472;2022-10-16T09:05:47;17.20;99.90
4811;DHT22;2419;51.276;6.472;2022-10-16T09:08:23;17.10;99.90
4811;DHT22;2419;51.276;6.472;2022-10-16T09:10:58;17.20;99.90
4811;DHT22;2419;51.276;6.472;2022-10-16T09:13:33;17.10;99.90
4811;DHT22;2419;51.276;6.472;2022-10-16T09:16:14;17.10;99.90
4811;DHT22;2419;51.276;6.472;2022-10-16T09:18:50;17.10;99.90
4811;DHT22;2419;51.276;6.472;2022-10-16T09:21:23;17.10;99.90
4811;DHT22;2419;51.276;6.472;2022-10-16T09:23:52;17.10;99.90
4811;DHT22;2419;51.276;6.472;2022-10-16T09:26:22;17.40;99.90
4811;DHT22;2419;51.276;6.472;2022-10-16T09:28:55;17.40;99.90
4811;DHT22;2419;51.276;6.472;2022-10-16T09:31:24;18.10;99.90
4811;DHT22;2419;51.276;6.472;2022-10-16T09:33:57;18.40;99.90
4811;DHT22;2419;51.276;6.472;2022-10-16T09:36:27;18.00;99.90
4811;DHT22;2419;51.276;6.472;2022-10-16T09:39:03;18.20;99.90
4811;DHT22;2419;51.276;6.472;2022-10-16T09:41:34;17.90;99.90
4811;DHT22;2419;51.276;6.472;2022-10-16T09:44:04;17.80;99.90
4811;DHT22;2419;51.276;6.472;2022-10-16T09:46:35;18.20;99.90
4811;DHT22;2419;51.276;6.472;2022-10-16T09:49:16;18.60;99.90
4811;DHT22;2419;51.276;6.472;2022-10-16T09:51:46;19.40;99.90
4811;DHT22;2419;51.276;6.472;2022-10-16T09:54:19;19.30;99.90
4811;DHT22;2419;51.276;6.472;2022-10-16T09:56:48;19.40;99.90
4811;DHT22;2419;51.276;6.472;2022-10-16T09:59:20;20.60;99.90
4811;DHT22;2419;51.276;6.472;2022-10-16T10:01:53;22.40;99.90
4811;DHT22;2419;51.276;6.472;2022-10-16T10:04:23;24.50;96.90
4811;DHT22;2419;51.276;6.472;2022-10-16T10:06:53;24.20;95.00
4811;DHT22;2419;51.276;6.472;2022-10-16T10:09:23;23.60;95.40
4811;DHT22;2419;51.276;6.472;2022-10-16T10:11:54;23.60;95.10
4811;DHT22;2419;51.276;6.472;2022-10-16T10:14:27;24.10;93.80
4811;DHT22;2419;51.276;6.472;2022-10-16T10:17:13;25.00;92.50
4811;DHT22;2419;51.276;6.472;2022-10-16T10:19:46;26.40;91.20
4811;DHT22;2419;51.276;6.472;2022-10-16T10:22:32;26.50;86.30
4811;DHT22;2419;51.276;6.472;2022-10-16T10:25:19;25.20;90.20
4811;DHT22;2419;51.276;6.472;2022-10-16T10:28:05;23.10;93.50
4811;DHT22;2419;51.276;6.472;2022-10-16T10:30:42;23.20;92.30
4811;DHT22;2419;51.276;6.472;2022-10-16T10:33:24;22.70;95.50
4811;DHT22;2419;51.276;6.472;2022-10-16T10:36:00;24.60;94.00
4811;DHT22;2419;51.276;6.472;2022-10-16T10:38:39;24.50;90.20
4811;DHT22;2419;51.276;6.472;2022-10-16T10:41:26;24.50;91.60
4811;DHT22;2419;51.276;6.472;2022-10-16T10:44:07;25.20;90.70
4811;DHT22;2419;51.276;6.472;2022-10-16T10:46:42;25.50;89.10
4811;DHT22;2419;51.276;6.472;2022-10-16T10:49:25;25.10;89.50
4811;DHT22;2419;51.276;6.472;2022-10-16T10:52:05;26.90;84.80
4811;DHT22;2419;51.276;6.472;2022-10-16T10:54:45;27.00;81.70
4811;DHT22;2419;51.276;6.472;2022-10-16T10:57:22;24.60;86.60
4811;DHT22;2419;51.276;6.472;2022-10-16T11:00:06;26.20;84.70
4811;DHT22;2419;51.276;6.472;2022-10-16T11:02:48;26.40;85.20
4811;DHT22;2419;51.276;6.472;2022-10-16T11:05:31;26.90;82.10
4811;DHT22;2419;51.276;6.472;2022-10-16T11:08:08;26.60;82.40
4811;DHT22;2419;51.276;6.472;2022-10-16T11:10:44;26.50;83.30
4811;DHT22;2419;51.276;6.472;2022-10-16T11:13:32;26.50;81.20
4811;DHT22;2419;51.276;6.472;2022-10-16T11:16:10;27.60;80.10
4811;DHT22;2419;51.276;6.472;2022-10-16T11:18:47;27.50;78.10
4811;DHT22;2419;51.276;6.472;2022-10-16T11:21:21;27.50;77.10
4811;DHT22;2419;51.276;6.472;2022-10-16T11:24:00;26.50;79.40
4811;DHT22;2419;51.276;6.472;2022-10-16T11:26:34;26.60;78.10
4811;DHT22;2419;51.276;6.472;2022-10-16T11:29:05;24.50;79.90
4811;DHT22;2419;51.276;6.472;2022-10-16T11:31:41;24.50;82.00
4811;DHT22;2419;51.276;6.472;2022-10-16T11:34:19;23.10;85.40
4811;DHT22;2419;51.276;6.472;2022-10-16T11:36:53;22.50;90.30
4811;DHT22;2419;51.276;6.472;2022-10-16T11:39:25;22.00;92.90
4811;DHT22;2419;51.276;6.472;2022-10-16T11:41:56;22.30;94.00
4811;DHT22;2419;51.276;6.472;2022-10-16T11:44:38;24.10;89.90
4811;DHT22;2419;51.276;6.472;2022-10-16T11:47:18;24.00;86.90
4811;DHT22;2419;51.276;6.472;2022-10-16T11:50:19;23.40;87.30
4811;DHT22;2419;51.276;6.472;2022-10-16T11:52:55;23.50;88.50
4811;DHT22;2419;51.276;6.472;2022-10-16T11:55:27;23.30;90.40
4811;DHT22;2419;51.276;6.472;2022-10-16T11:58:01;23.30;88.40
4811;DHT22;2419;51.276;6.472;2022-10-16T12:00:36;23.60;87.40
4811;DHT22;2419;51.276;6.472;2022-10-16T12:03:13;23.30;87.60
4811;DHT22;2419;51.276;6.472;2022-10-16T12:05:55;24.30;86.00
4811;DHT22;2419;51.276;6.472;2022-10-16T12:08:28;24.70;86.80
4811;DHT22;2419;51.276;6.472;2022-10-16T12:11:07;24.00;87.30
4811;DHT22;2419;51.276;6.472;2022-10-16T12:13:37;24.50;87.70
4811;DHT22;2419;51.276;6.472;2022-10-16T12:16:06;24.60;87.60
4811;DHT22;2419;51.276;6.472;2022-10-16T12:18:35;24.20;87.00
4811;DHT22;2419;51.276;6.472;2022-10-16T12:21:03;23.90;87.30
4811;DHT22;2419;51.276;6.472;2022-10-16T12:23:37;23.90;90.20
4811;DHT22;2419;51.276;6.472;2022-10-16T12:26:06;23.70;90.10
4811;DHT22;2419;51.276;6.472;2022-10-16T12:28:34;23.70;87.30
4811;DHT22;2419;51.276;6.472;2022-10-16T12:31:06;22.10;91.00
4811;DHT22;2419;51.276;6.472;2022-10-16T12:33:39;21.70;94.10
4811;DHT22;2419;51.276;6.472;2022-10-16T12:36:13;21.00;96.50
4811;DHT22;2419;51.276;6.472;2022-10-16T12:38:50;21.30;98.40
4811;DHT22;2419;51.276;6.472;2022-10-16T12:41:25;21.50;94.40
4811;DHT22;2419;51.276;6.472;2022-10-16T12:43:55;21.50;94.60
4811;DHT22;2419;51.276;6.472;2022-10-16T12:46:38;21.00;96.60
4811;DHT22;2419;51.276;6.472;2022-10-16T12:49:21;21.80;97.00
4811;DHT22;2419;51.276;6.472;2022-10-16T12:51:52;22.60;94.50
4811;DHT22;2419;51.276;6.472;2022-10-16T12:54:27;22.10;92.70
4811;DHT22;2419;51.276;6.472;2022-10-16T12:57:17;21.20;94.30
4811;DHT22;2419;51.276;6.472;2022-10-16T12:59:53;21.20;94.40
4811;DHT22;2419;51.276;6.472;2022-10-16T13:02:44;21.00;95.50
4811;DHT22;2419;51.276;6.472;2022-10-16T13:05:24;20.60;95.40
4811;DHT22;2419;51.276;6.472;2022-10-16T13:08:03;20.50;96.40
4811;DHT22;2419;51.276;6.472;2022-10-16T13:10:44;20.20;97.90
4811;DHT22;2419;51.276;6.472;2022-10-16T13:13:35;20.10;96.00
4811;DHT22;2419;51.276;6.472;2022-10-16T13:16:12;19.80;99.90
4811;DHT22;2419;51.276;6.472;2022-10-16T13:18:49;20.00;97.90
4811;DHT22;2419;51.276;6.472;2022-10-16T13:21:29;20.00;96.30
4811;DHT22;2419;51.276;6.472;2022-10-16T13:24:06;20.00;96.90
4811;DHT22;2419;51.276;6.472;2022-10-16T13:26:44;19.90;97.00
4811;DHT22;2419;51.276;6.472;2022-10-16T13:29:14;19.70;98.20
4811;DHT22;2419;51.276;6.472;2022-10-16T13:31:43;19.60;98.50
4811;DHT22;2419;51.276;6.472;2022-10-16T13:34:15;19.70;98.30
4811;DHT22;2419;51.276;6.472;2022-10-16T13:36:46;19.80;98.80
4811;DHT22;2419;51.276;6.472;2022-10-16T13:39:22;20.00;98.40
4811;DHT22;2419;51.276;6.472;2022-10-16T13:42:09;20.00;98.40
4811;DHT22;2419;51.276;6.472;2022-10-16T13:44:47;20.20;98.40
4811;DHT22;2419;51.276;6.472;2022-10-16T13:47:17;20.10;99.70
4811;DHT22;2419;51.276;6.472;2022-10-16T13:49:46;20.40;99.10
4811;DHT22;2419;51.276;6.472;2022-10-16T13:52:19;20.90;99.20
4811;DHT22;2419;51.276;6.472;2022-10-16T13:54:48;21.00;97.40
4811;DHT22;2419;51.276;6.472;2022-10-16T13:57:18;20.90;97.70
4811;DHT22;2419;51.276;6.472;2022-10-16T13:59:54;20.80;99.20
4811;DHT22;2419;51.276;6.472;2022-10-16T14:02:25;20.10;99.90
4811;DHT22;2419;51.276;6.472;2022-10-16T14:04:55;20.00;99.90
4811;DHT22;2419;51.276;6.472;2022-10-16T14:07:25;19.60;99.90
4811;DHT22;2419;51.276;6.472;2022-10-16T14:09:54;19.60;99.90
4811;DHT22;2419;51.276;6.472;2022-10-16T14:12:24;19.50;99.90
4811;DHT22;2419;51.276;6.472;2022-10-16T14:14:55;19.50;99.90
4811;DHT22;2419;51.276;6.472;2022-10-16T14:17:26;19.70;99.90
4811;DHT22;2419;51.276;6.472;2022-10-16T14:19:57;19.80;99.90
4811;DHT22;2419;51.276;6.472;2022-10-16T14:22:32;19.80;99.90
4811;DHT22;2419;51.276;6.472;2022-10-16T14:25:01;19.60;99.90
4811;DHT22;2419;51.276;6.472;2022-10-16T14:27:33;19.50;99.90
4811;DHT22;2419;51.276;6.472;2022-10-16T14:30:13;19.50;99.90
4811;DHT22;2419;51.276;6.472;2022-10-16T14:32:52;19.60;99.90
4811;DHT22;2419;51.276;6.472;2022-10-16T14:35:28;19.60;99.90
4811;DHT22;2419;51.276;6.472;2022-10-16T14:37:59;19.30;99.90
4811;DHT22;2419;51.276;6.472;2022-10-16T14:40:29;19.30;99.90
4811;DHT22;2419;51.276;6.472;2022-10-16T14:43:00;19.10;99.90
4811;DHT22;2419;51.276;6.472;2022-10-16T14:45:32;19.00;99.90
4811;DHT22;2419;51.276;6.472;2022-10-16T14:48:03;18.90;99.90
4811;DHT22;2419;51.276;6.472;2022-10-16T14:50:33;18.90;99.90
4811;DHT22;2419;51.276;6.472;2022-10-16T14:53:01;18.70;99.90
4811;DHT22;2419;51.276;6.472;2022-10-16T14:55:29;18.80;99.90
4811;DHT22;2419;51.276;6.472;2022-10-16T14:57:58;18.90;99.90
4811;DHT22;2419;51.276;6.472;2022-10-16T15:00:27;18.90;99.90
4811;DHT22;2419;51.276;6.472;2022-10-16T15:02:55;19.00;99.90
4811;DHT22;2419;51.276;6.472;2022-10-16T15:05:24;18.90;99.90
4811;DHT22;2419;51.276;6.472;2022-10-16T15:07:54;18.80;99.90
4811;DHT22;2419;51.276;6.472;2022-10-16T15:10:24;18.90;99.90
4811;DHT22;2419;51.276;6.472;2022-10-16T15:12:53;19.00;99.90
4811;DHT22;2419;51.276;6.472;2022-10-16T15:15:35;18.90;99.90
4811;DHT22;2419;51.276;6.472;2022-10-16T15:18:04;18.80;99.90
4811;DHT22;2419;51.276;6.472;2022-10-16T15:20:34;18.70;99.90
4811;DHT22;2419;51.276;6.472;2022-10-16T15:23:04;18.60;99.90
4811;DHT22;2419;51.276;6.472;2022-10-16T15:25:36;18.50;99.90
4811;DHT22;2419;51.276;6.472;2022-10-16T15:28:06;18.50;99.90
4811;DHT22;2419;51.276;6.472;2022-10-16T15:30:36;18.50;99.90
4811;DHT22;2419;51.276;6.472;2022-10-16T15:33:08;18.40;99.90
4811;DHT22;2419;51.276;6.472;2022-10-16T15:35:38;18.30;99.90
4811;DHT22;2419;51.276;6.472;2022-10-16T15:38:08;18.40;99.90
4811;DHT22;2419;51.276;6.472;2022-10-16T15:40:37;18.30;99.90
4811;DHT22;2419;51.276;6.472;2022-10-16T15:43:05;18.10;99.90
4811;DHT22;2419;51.276;6.472;2022-10-16T15:45:33;18.00;99.90
4811;DHT22;2419;51.276;6.472;2022-10-16T15:48:03;17.90;99.90
4811;DHT22;2419;51.276;6.472;2022-10-16T15:50:31;17.80;99.90
4811;DHT22;2419;51.276;6.472;2022-10-16T15:53:00;17.80;99.90
4811;DHT22;2419;51.276;6.472;2022-10-16T15:55:28;17.80;99.90
4811;DHT22;2419;51.276;6.472;2022-10-16T15:57:56;17.70;99.90
4811;DHT22;2419;51.276;6.472;2022-10-16T16:00:24;17.70;99.90
4811;DHT22;2419;51.276;6.472;2022-10-16T16:02:53;17.70;99.90
4811;DHT22;2419;51.276;6.472;2022-10-16T16:05:23;17.70;99.90
4811;DHT22;2419;51.276;6.472;2022-10-16T16:07:51;17.60;99.90
4811;DHT22;2419;51.276;6.472;2022-10-16T16:10:19;17.60;99.90
4811;DHT22;2419;51.276;6.472;2022-10-16T16:12:48;17.60;99.90
4811;DHT22;2419;51.276;6.472;2022-10-16T16:15:19;17.50;99.90
4811;DHT22;2419;51.276;6.472;2022-10-16T16:17:48;17.30;99.90
4811;DHT22;2419;51.276;6.472;2022-10-16T16:20:16;17.30;99.90
4811;DHT22;2419;51.276;6.472;2022-10-16T16:22:46;17.20;99.90
4811;DHT22;2419;51.276;6.472;2022-10-16T16:25:14;17.20;99.90
4811;DHT22;2419;51.276;6.472;2022-10-16T16:27:42;17.20;99.90
4811;DHT22;2419;51.276;6.472;2022-10-16T16:30:11;17.10;99.90
4811;DHT22;2419;51.276;6.472;2022-10-16T16:32:45;17.10;99.90
4811;DHT22;2419;51.276;6.472;2022-10-16T16:35:13;17.00;99.90
4811;DHT22;2419;51.276;6.472;2022-10-16T16:37:41;17.00;99.90